Ione, California
Current Conditions -  °F | °C
As of 11:45 AM on Saturday 25 Oct 2014 (Local Time) from KMHR Reporting Station
Scattered Clouds Scattered Clouds  
Wind Chill: 61°   Ceiling: Unl
Heat Index: 61°   Visibility: 10mi
Dew Point: 59°   Wind: 14mph
Humidity: 94%   Direction: 150°SSE
Pressure: 30.05"   Gusts: 17mph
Location:  38.35°N, 120.93°W
Report Text: KMHR 251845Z 15012G15KT 10SM SCT110 16/15 A3005
Loading
Personal Weather Stations






























Interactive Weather Map
Tropical Storm Tracking
New forecast layout! Learn more

10-Day Weather Forecast

Advertisements
Track Severe Weather on mobile